createdAt,value
2017-09-29T03:31:31.224Z,27.77
2017-09-29T03:33:58.831Z,26.67
2017-09-29T03:36:26.444Z,27.83
2017-09-29T03:38:54.127Z,29.13
2017-09-29T03:41:21.725Z,29.80
2017-09-29T03:43:49.806Z,30.47
2017-09-29T03:46:17.420Z,28.77
2017-09-29T03:48:45.031Z,31.60
2017-09-29T03:51:24.036Z,26.83
2017-09-29T03:53:53.128Z,26.30
2017-09-29T03:56:25.944Z,27.63
2017-09-29T03:58:56.321Z,28.03
2017-09-29T04:01:24.754Z,30.20
2017-09-29T04:03:52.748Z,29.10
2017-09-29T04:06:20.366Z,34.83
2017-09-29T04:08:47.981Z,29.70
2017-09-29T04:11:16.045Z,29.17
2017-09-29T04:13:43.644Z,27.40
2017-09-29T04:16:11.594Z,24.53
2017-09-29T04:18:39.971Z,27.73
2017-09-29T04:21:08.330Z,25.37
2017-09-29T04:23:35.949Z,29.30
2017-09-29T04:26:03.554Z,28.17
2017-09-29T04:28:31.198Z,25.90
2017-09-29T04:30:58.799Z,26.73
2017-09-29T04:33:27.199Z,25.23
2017-09-29T04:35:54.825Z,25.30
2017-09-29T04:38:23.214Z,26.93
2017-09-29T04:40:51.600Z,24.93
2017-09-29T04:43:19.979Z,24.20
2017-09-29T04:45:48.373Z,24.30
2017-09-29T04:48:15.974Z,23.73
2017-09-29T04:50:43.657Z,24.43
2017-09-29T04:53:11.272Z,24.97
2017-09-29T04:55:38.890Z,26.33
2017-09-29T04:58:07.320Z,27.30
2017-09-29T05:00:34.936Z,26.27
2017-09-29T05:03:03.351Z,24.00
2017-09-29T05:05:30.962Z,23.00
2017-09-29T05:07:58.608Z,27.43
2017-09-29T05:10:26.239Z,22.33
2017-09-29T05:12:53.840Z,25.00
2017-09-29T05:15:21.741Z,28.53
2017-09-29T05:17:49.347Z,21.17
2017-09-29T05:20:16.973Z,23.47
2017-09-29T05:22:44.918Z,21.33
2017-09-29T05:25:13.282Z,24.70
2017-09-29T05:27:40.916Z,23.10
2017-09-29T05:30:08.555Z,22.53
2017-09-29T05:32:36.164Z,24.63
2017-09-29T05:35:04.112Z,24.23
2017-09-29T05:37:31.741Z,25.93
2017-09-29T05:39:59.346Z,29.10
2017-09-29T05:42:27.313Z,24.77
2017-09-29T05:44:54.948Z,22.27
2017-09-29T05:47:23.326Z,22.00
2017-09-29T05:49:51.322Z,23.83
2017-09-29T05:52:18.932Z,28.20
2017-09-29T05:54:46.543Z,23.37
2017-09-29T05:57:14.506Z,23.97
2017-09-29T05:59:42.110Z,24.73
2017-09-29T06:02:09.762Z,22.70
2017-09-29T06:04:38.549Z,22.37
2017-09-29T06:07:06.929Z,24.10
2017-09-29T06:09:35.389Z,24.63
2017-09-29T06:12:03.374Z,21.90
2017-09-29T06:14:31.865Z,18.97
2017-09-29T06:17:00.626Z,19.40
2017-09-29T06:19:28.248Z,30.63
2017-09-29T06:21:55.855Z,21.50
2017-09-29T06:24:23.856Z,21.80
2017-09-29T06:26:51.469Z,22.23
2017-09-29T06:29:19.273Z,17.07
2017-09-29T06:31:47.667Z,24.90
2017-09-29T06:34:15.308Z,26.10
2017-09-29T06:36:44.078Z,20.70
2017-09-29T06:39:12.447Z,21.20
2017-09-29T06:41:40.102Z,20.87
2017-09-29T06:44:07.734Z,18.47
2017-09-29T06:46:35.379Z,19.97
2017-09-29T06:49:03.403Z,25.83
2017-09-29T06:51:31.014Z,18.17
2017-09-29T06:53:58.699Z,20.80
2017-09-29T06:56:26.635Z,22.63
2017-09-29T06:58:54.297Z,21.20
2017-09-29T07:01:21.932Z,22.27
2017-09-29T07:03:50.319Z,24.87
2017-09-29T07:06:18.705Z,23.80
2017-09-29T07:08:47.424Z,25.30
2017-09-29T07:11:15.042Z,21.60
2017-09-29T07:13:43.414Z,19.37
2017-09-29T07:16:12.211Z,22.57
2017-09-29T07:18:40.584Z,25.70
2017-09-29T07:21:08.955Z,21.30
2017-09-29T07:23:37.363Z,29.07
2017-09-29T07:26:07.186Z,22.50
2017-09-29T07:28:40.331Z,21.00
2017-09-29T07:31:10.363Z,20.97
2017-09-29T07:33:38.828Z,19.43
2017-09-29T07:36:06.503Z,23.40
2017-09-29T07:38:34.880Z,23.97
2017-09-29T07:41:03.632Z,24.53
2017-09-29T07:43:31.243Z,20.07
2017-09-29T07:45:59.681Z,23.20
2017-09-29T07:48:27.644Z,22.33
2017-09-29T07:50:55.253Z,24.20
2017-09-29T07:53:23.633Z,22.53
2017-09-29T07:55:51.743Z,21.43
2017-09-29T07:58:19.338Z,24.53
2017-09-29T08:00:46.959Z,23.17
2017-09-29T08:03:14.917Z,40.33
2017-09-29T08:05:42.533Z,24.40
2017-09-29T08:08:10.172Z,25.30
2017-09-29T08:10:37.802Z,20.93
2017-09-29T08:13:05.463Z,26.33
2017-09-29T08:15:33.470Z,22.47
2017-09-29T08:18:01.069Z,24.57
2017-09-29T08:20:29.463Z,21.10
2017-09-29T08:22:57.415Z,26.90
2017-09-29T08:25:25.786Z,22.93
2017-09-29T08:27:54.172Z,21.30
2017-09-29T08:30:22.923Z,22.10
2017-09-29T08:32:50.535Z,23.97
2017-09-29T08:35:18.135Z,24.77
2017-09-29T08:37:46.411Z,22.30
2017-09-29T08:40:14.040Z,19.20
2017-09-29T08:42:41.639Z,20.67
2017-09-29T08:45:09.611Z,24.90
2017-09-29T08:47:37.258Z,19.13
2017-09-29T08:50:04.861Z,24.63
2017-09-29T08:52:33.248Z,21.00
2017-09-29T08:55:01.638Z,24.53
2017-09-29T08:57:29.295Z,22.57
2017-09-29T08:59:56.904Z,23.30
2017-09-29T09:02:24.653Z,21.13
2017-09-29T09:04:52.280Z,22.20
2017-09-29T09:07:19.896Z,17.87
2017-09-29T09:09:47.532Z,19.87
2017-09-29T09:12:15.153Z,22.30
2017-09-29T09:14:43.529Z,20.10
2017-09-29T09:17:11.938Z,19.80
2017-09-29T09:19:39.539Z,22.43
2017-09-29T09:22:07.181Z,27.70
2017-09-29T09:24:34.797Z,21.67
2017-09-29T09:27:02.414Z,26.17
2017-09-29T09:29:30.038Z,21.30
2017-09-29T09:31:57.661Z,19.83
2017-09-29T09:34:26.097Z,28.40
2017-09-29T09:36:54.001Z,20.43
2017-09-29T09:39:21.679Z,22.33
2017-09-29T09:41:50.064Z,24.80
2017-09-29T09:44:18.445Z,26.03
2017-09-29T09:46:47.207Z,21.93
2017-09-29T09:49:14.813Z,22.10
2017-09-29T09:51:42.445Z,24.20
2017-09-29T09:54:10.838Z,22.70
2017-09-29T09:56:39.324Z,18.83
2017-09-29T09:59:07.355Z,22.40
2017-09-29T10:01:35.030Z,20.20
2017-09-29T10:04:02.637Z,19.43
2017-09-29T10:06:30.304Z,21.47
2017-09-29T10:08:57.900Z,23.10
2017-09-29T10:11:25.535Z,17.20
2017-09-29T10:13:53.149Z,19.63
2017-09-29T10:16:21.927Z,21.77
2017-09-29T10:18:50.424Z,16.10
2017-09-29T10:21:18.797Z,22.33
2017-09-29T10:23:47.174Z,19.10
2017-09-29T10:26:15.550Z,21.03
2017-09-29T10:28:44.244Z,22.57
2017-09-29T10:31:12.620Z,19.37
2017-09-29T10:33:40.988Z,21.10
2017-09-29T10:36:09.379Z,19.23
2017-09-29T10:38:36.996Z,20.97
2017-09-29T10:41:04.938Z,23.87
2017-09-29T10:43:32.554Z,18.40
2017-09-29T10:46:00.925Z,17.93
2017-09-29T10:48:28.537Z,22.67
2017-09-29T10:50:56.219Z,20.20
2017-09-29T10:53:24.202Z,17.47
2017-09-29T10:55:51.900Z,19.03
2017-09-29T10:58:20.308Z,24.03
2017-09-29T11:00:47.951Z,16.23
2017-09-29T11:03:15.558Z,20.70
2017-09-29T11:05:43.502Z,21.30
2017-09-29T11:08:11.112Z,22.03
2017-09-29T11:10:38.824Z,18.53
2017-09-29T11:13:06.443Z,19.57
2017-09-29T11:15:34.824Z,21.33
2017-09-29T11:18:03.597Z,18.77
2017-09-29T11:20:31.191Z,16.83
2017-09-29T11:22:58.809Z,21.80
2017-09-29T11:25:26.476Z,16.07
2017-09-29T11:27:54.082Z,15.80
2017-09-29T11:30:22.089Z,16.67
2017-09-29T11:32:50.461Z,17.57
2017-09-29T11:35:18.068Z,17.27
2017-09-29T11:37:46.463Z,16.40
2017-09-29T11:40:14.110Z,19.67
2017-09-29T11:42:42.841Z,20.67
2017-09-29T11:45:10.502Z,20.40
2017-09-29T11:47:38.125Z,18.93
2017-09-29T11:50:06.518Z,19.27
2017-09-29T11:52:34.129Z,16.50
2017-09-29T11:55:02.104Z,19.10
2017-09-29T11:57:29.718Z,19.40
2017-09-29T11:59:57.362Z,21.70
2017-09-29T12:02:24.991Z,19.90
2017-09-29T12:04:52.620Z,17.93
2017-09-29T12:07:20.615Z,21.20
2017-09-29T12:09:48.230Z,21.47
2017-09-29T12:12:15.834Z,19.30
2017-09-29T12:14:43.462Z,23.20
2017-09-29T12:17:11.084Z,20.73
2017-09-29T12:19:39.816Z,20.33
2017-09-29T12:22:07.446Z,16.03
2017-09-29T12:24:35.082Z,23.77
2017-09-29T12:27:02.739Z,19.37
2017-09-29T12:29:30.414Z,29.27
2017-09-29T12:31:59.138Z,20.80
2017-09-29T12:34:27.147Z,21.73
2017-09-29T12:37:02.974Z,22.50
2017-09-29T12:39:30.840Z,19.67
2017-09-29T12:41:58.514Z,18.30
2017-09-29T12:44:26.211Z,20.57
2017-09-29T12:46:54.644Z,20.30
2017-09-29T12:49:26.158Z,17.90
2017-09-29T12:51:55.016Z,18.60
2017-09-29T12:54:23.812Z,19.03
2017-09-29T12:56:51.434Z,21.23
2017-09-29T12:59:19.050Z,22.73
2017-09-29T13:01:47.531Z,21.13
2017-09-29T13:04:15.900Z,20.30
2017-09-29T13:06:43.858Z,21.70
2017-09-29T13:09:11.473Z,17.83
2017-09-29T13:11:39.101Z,21.43
2017-09-29T13:14:07.577Z,21.67
2017-09-29T13:16:35.958Z,19.60
2017-09-29T13:19:04.713Z,19.40
2017-09-29T13:21:32.370Z,17.83
2017-09-29T13:24:00.026Z,19.23
2017-09-29T13:26:27.702Z,20.73
2017-09-29T13:28:55.330Z,23.30
2017-09-29T13:31:23.289Z,21.30
2017-09-29T13:33:50.898Z,22.03
2017-09-29T13:36:18.522Z,18.13
2017-09-29T13:38:46.166Z,20.97
2017-09-29T13:41:13.773Z,19.80
2017-09-29T13:43:41.749Z,20.40
2017-09-29T13:46:09.370Z,20.33
2017-09-29T13:48:36.989Z,20.17
2017-09-29T13:51:05.393Z,20.97
2017-09-29T13:53:33.052Z,22.23
2017-09-29T13:56:01.102Z,19.33
2017-09-29T13:58:29.499Z,18.60
2017-09-29T14:00:57.121Z,19.10
2017-09-29T14:03:25.071Z,17.63
2017-09-29T14:05:52.697Z,14.97
2017-09-29T14:08:20.645Z,17.97
2017-09-29T14:10:49.041Z,17.43
2017-09-29T14:13:16.669Z,16.33
2017-09-29T14:15:44.317Z,16.50
2017-09-29T14:18:12.009Z,17.13
2017-09-29T14:20:40.765Z,28.23
2017-09-29T14:23:09.181Z,21.47
2017-09-29T14:25:37.569Z,20.17
2017-09-29T14:28:05.203Z,20.60
2017-09-29T14:30:32.881Z,18.10
2017-09-29T14:33:00.923Z,18.07
2017-09-29T14:35:28.678Z,18.13
2017-09-29T14:37:57.076Z,17.93
2017-09-29T14:40:24.698Z,21.03
2017-09-29T14:42:52.402Z,19.70
2017-09-29T14:45:20.470Z,22.47
2017-09-29T14:47:48.077Z,19.03
2017-09-29T14:50:15.699Z,19.60
2017-09-29T14:52:44.102Z,20.63
2017-09-29T14:55:11.821Z,17.80
2017-09-29T14:57:39.801Z,17.60
2017-09-29T15:00:07.438Z,20.53
2017-09-29T15:02:35.093Z,16.00
2017-09-29T15:05:02.714Z,16.77
2017-09-29T15:07:31.091Z,16.80
2017-09-29T15:09:59.954Z,18.10
2017-09-29T15:12:27.577Z,18.37
2017-09-29T15:14:55.221Z,19.03
2017-09-29T15:17:22.846Z,18.97
2017-09-29T15:20:00.740Z,18.83
2017-09-29T15:22:28.912Z,19.77
2017-09-29T15:24:56.525Z,21.53
2017-09-29T15:27:24.134Z,23.17
2017-09-29T15:29:51.852Z,22.17
2017-09-29T15:32:19.511Z,17.00
2017-09-29T15:34:47.620Z,19.77
2017-09-29T15:37:15.226Z,22.33
2017-09-29T15:39:42.836Z,18.13
2017-09-29T15:42:10.468Z,22.83
2017-09-29T15:44:38.084Z,22.27
2017-09-29T15:47:06.038Z,21.50
2017-09-29T15:49:33.649Z,21.53
2017-09-29T15:52:01.290Z,21.97
2017-09-29T15:54:29.696Z,22.07
2017-09-29T15:56:57.294Z,18.10
2017-09-29T15:59:25.373Z,20.87
2017-09-29T16:01:53.052Z,24.47
2017-09-29T16:04:21.470Z,19.13
2017-09-29T16:06:49.168Z,18.30
2017-09-29T16:09:16.789Z,18.03
2017-09-29T16:11:44.761Z,22.00
2017-09-29T16:14:12.470Z,20.00
2017-09-29T16:16:40.144Z,16.57
2017-09-29T16:19:07.782Z,27.40
2017-09-29T16:21:35.405Z,20.43
2017-09-29T16:24:03.395Z,18.13
2017-09-29T16:26:31.018Z,20.10
2017-09-29T16:28:58.651Z,20.97
2017-09-29T16:31:26.289Z,17.83
2017-09-29T16:33:53.966Z,15.47
2017-09-29T16:36:21.607Z,16.57
2017-09-29T16:38:49.290Z,15.20
2017-09-29T16:41:16.921Z,16.47
2017-09-29T16:43:44.940Z,18.77
2017-09-29T16:46:13.348Z,18.20
2017-09-29T16:48:40.974Z,20.73
2017-09-29T16:51:08.619Z,20.63
2017-09-29T16:53:36.337Z,18.50
2017-09-29T16:56:04.372Z,20.47
2017-09-29T16:58:31.978Z,20.20
2017-09-29T17:00:59.641Z,20.27
2017-09-29T17:03:27.653Z,18.60
2017-09-29T17:05:55.278Z,18.43
2017-09-29T17:08:23.750Z,20.70
2017-09-29T17:10:51.724Z,19.73
2017-09-29T17:13:19.363Z,20.97
2017-09-29T17:15:47.072Z,20.00
2017-09-29T17:18:14.766Z,18.80
2017-09-29T17:20:43.453Z,28.33
2017-09-29T17:23:17.590Z,42.40
2017-09-29T17:25:45.262Z,68.87
2017-09-29T17:28:13.209Z,75.83
2017-09-29T17:30:42.185Z,64.50
2017-09-29T17:33:09.825Z,34.07
2017-09-29T17:35:38.394Z,24.40
2017-09-29T17:38:06.387Z,18.67
2017-09-29T17:40:34.022Z,16.50
2017-09-29T17:43:01.647Z,16.77
2017-09-29T17:45:29.291Z,20.15
2017-09-29T17:47:57.740Z,24.43
2017-09-29T17:50:25.832Z,21.50
2017-09-29T17:52:53.448Z,18.90
2017-09-29T17:55:21.104Z,23.73
2017-09-29T17:57:49.127Z,23.30
2017-09-29T18:00:17.417Z,20.00
2017-09-29T18:02:45.819Z,17.53
2017-09-29T18:05:13.848Z,19.53
2017-09-29T18:07:41.476Z,17.47
2017-09-29T18:10:09.127Z,19.03
2017-09-29T18:12:36.835Z,17.93
2017-09-29T18:15:04.476Z,20.00
2017-09-29T18:17:32.453Z,19.87
2017-09-29T18:20:01.691Z,19.70
2017-09-29T18:22:29.397Z,17.00
2017-09-29T18:24:57.204Z,21.07
2017-09-29T18:27:25.598Z,17.67
2017-09-29T18:29:54.627Z,22.70
2017-09-29T18:32:23.042Z,19.77
2017-09-29T18:34:50.655Z,19.40
2017-09-29T18:37:18.320Z,17.67
2017-09-29T18:39:46.061Z,18.83
2017-09-29T18:42:13.753Z,20.90
2017-09-29T18:44:44.009Z,18.00
2017-09-29T18:50:07.251Z,22.57
2017-09-29T18:52:35.279Z,18.63
2017-09-29T18:55:03.695Z,20.73
2017-09-29T18:57:31.328Z,18.50
2017-09-29T19:00:00.190Z,17.40
2017-09-29T19:02:28.013Z,25.67
2017-09-29T19:04:55.692Z,19.50
2017-09-29T19:07:23.738Z,18.53
2017-09-29T19:09:51.386Z,21.80
2017-09-29T19:12:19.786Z,18.13
2017-09-29T19:14:47.452Z,17.80
2017-09-29T19:17:15.095Z,22.00
2017-09-29T19:19:43.105Z,19.23
2017-09-29T19:22:10.760Z,22.80
2017-09-29T19:24:38.931Z,24.03
2017-09-29T19:27:06.598Z,22.60
2017-09-29T19:29:34.247Z,21.00
2017-09-29T19:32:02.251Z,23.30
2017-09-29T19:34:29.954Z,22.43
2017-09-29T19:36:58.672Z,22.70
2017-09-29T19:39:26.325Z,22.80
2017-09-29T19:41:53.942Z,19.40
2017-09-29T19:44:22.685Z,18.17
2017-09-29T19:46:50.602Z,23.37
2017-09-29T19:49:19.001Z,21.30
2017-09-29T19:51:46.650Z,19.60
2017-09-29T19:54:14.337Z,22.23
2017-09-29T19:56:42.484Z,23.20
2017-09-29T19:59:11.086Z,20.50
2017-09-29T20:01:38.722Z,21.00
2017-09-29T20:04:07.578Z,23.80
2017-09-29T20:06:35.268Z,21.27
2017-09-29T20:09:03.655Z,17.47
2017-09-29T20:11:32.092Z,18.87
2017-09-29T20:13:59.859Z,25.87
2017-09-29T20:16:27.986Z,22.00
2017-09-29T20:18:55.669Z,19.70
2017-09-29T20:21:23.307Z,20.60
2017-09-29T20:23:51.351Z,26.37
2017-09-29T20:26:19.020Z,19.67
2017-09-29T20:28:47.480Z,20.97
2017-09-29T20:31:15.177Z,23.27
2017-09-29T20:33:43.565Z,21.67
2017-09-29T20:36:11.598Z,24.07
2017-09-29T20:38:39.250Z,20.87
2017-09-29T20:41:07.634Z,24.83
2017-09-29T20:43:35.325Z,25.33
2017-09-29T20:46:03.706Z,22.33
2017-09-29T20:48:32.570Z,19.93
2017-09-29T20:51:00.197Z,25.10
2017-09-29T20:53:27.821Z,22.23
2017-09-29T20:55:56.218Z,20.77
2017-09-29T20:58:23.861Z,22.53
2017-09-29T21:00:52.625Z,26.63
2017-09-29T21:03:20.249Z,21.87
2017-09-29T21:05:47.927Z,20.93
2017-09-29T21:08:15.567Z,22.17
2017-09-29T21:10:43.180Z,21.33
2017-09-29T21:13:11.956Z,22.93
2017-09-29T21:15:39.573Z,21.97
2017-09-29T21:18:07.178Z,28.00
2017-09-29T21:20:35.148Z,23.50
2017-09-29T21:23:02.756Z,22.73
2017-09-29T21:25:30.361Z,24.37
2017-09-29T21:27:57.989Z,23.00
2017-09-29T21:30:25.605Z,24.10
2017-09-29T21:32:54.476Z,21.57
2017-09-29T21:35:22.839Z,21.70
2017-09-29T21:37:50.445Z,20.67
2017-09-29T21:40:18.844Z,24.60
2017-09-29T21:42:46.484Z,21.63
2017-09-29T21:45:14.862Z,22.10
2017-09-29T21:47:42.822Z,20.73
2017-09-29T21:50:11.246Z,19.63
2017-09-29T21:52:38.848Z,22.97
2017-09-29T21:55:07.250Z,22.37
2017-09-29T21:57:35.645Z,22.80
2017-09-29T22:00:04.015Z,19.67
2017-09-29T22:02:31.624Z,21.63
2017-09-29T22:04:59.231Z,20.47
2017-09-29T22:07:27.618Z,18.70
2017-09-29T22:09:55.220Z,28.97
2017-09-29T22:12:23.180Z,18.00
2017-09-29T22:14:51.562Z,24.03
2017-09-29T22:17:19.186Z,19.00
2017-09-29T22:19:46.821Z,23.10
2017-09-29T22:22:14.461Z,17.70
2017-09-29T22:24:42.427Z,17.60
2017-09-29T22:27:10.041Z,17.40
2017-09-29T22:29:37.645Z,15.97
